Holmen — LG2014 — position and weather

sailwx.info

Track history (hours):
 
Tides and Currents Weather Stations Pressure Air Temp Water Temp Dewpoint Dewpoint Depression Visibility Wind Speed Wind Dir Waves Ship Positions

Holmen

Last reported at 2018-Jun-22 08:27 UTC. Time now 2018-Jun-22 11:15 UTC.
Position N 64°48' E 011°02'.

Length 9 m; draft 0.8 m.

MMSI: 257774900.

Date/timePositionNaut miles runAvg speedWind from/ knotsBaromVisibWave heightAir tempDewpointWater temp
2018-Jun-22 08:27N 64°48' E 011°02'0 0.0
2018-Jun-22 07:06N 64°48' E 011°02'217.0
2018-Jun-22 06:59N 64°49' E 011°06'510.7
2018-Jun-22 06:30N 64°52' E 011°15'815.6
2018-Jun-22 06:00N 64°57' E 011°29'5 0.3
2018-Jun-21 13:25N 65°01' E 011°35'820.9
2018-Jun-21 13:01N 64°55' E 011°21'713.1
2018-Jun-21 12:31N 64°50' E 011°11'4 1.4
2018-Jun-21 09:15N 64°48' E 011°02'0 0.3
2018-Jun-21 08:48N 64°48' E 011°02'0 0.1
2018-Jun-21 08:08N 64°48' E 011°01'2 1.5
2018-Jun-21 06:48N 64°49' E 011°06'518.5
2018-Jun-21 06:31N 64°52' E 011°16'3 6.4
2018-Jun-21 06:01N 64°55' E 011°19'816.9
2018-Jun-21 05:30N 65°00' E 011°35'4 8.8
2018-Jun-21 05:00N 65°04' E 011°40'0 0.0
2018-Jun-20 13:07N 65°04' E 011°40'214.2
2018-Jun-20 12:59N 65°03' E 011°37'1019.8
2018-Jun-20 12:30N 64°55' E 011°23'2 3.8
2018-Jun-20 12:01N 64°55' E 011°19'0 0.0
2018-Jun-20 11:31N 64°55' E 011°19'0 0.0
2018-Jun-20 11:01N 64°55' E 011°19'0 0.0
2018-Jun-20 10:31N 64°55' E 011°19'0 0.0
2018-Jun-20 10:00N 64°55' E 011°19'2 3.4
2018-Jun-20 09:30N 64°53' E 011°18'5 9.5
2018-Jun-20 09:00N 64°50' E 011°10'3 6.1
2018-Jun-20 08:30N 64°52' E 011°15'3 6.5
2018-Jun-20 08:00N 64°55' E 011°19'0 0.0
2018-Jun-20 07:30N 64°55' E 011°19'0 0.0
2018-Jun-20 07:00N 64°55' E 011°19'5 9.2
2018-Jun-20 06:30N 64°57' E 011°28'612.4
2018-Jun-20 06:01N 65°02' E 011°37'3 0.3
2018-Jun-19 19:25N 65°04' E 011°40'819.2
2018-Jun-19 19:01N 64°58' E 011°30'917.1
2018-Jun-19 18:30N 64°52' E 011°15'7 2.3
2018-Jun-19 15:32N 64°48' E 011°01'3 1.9
2018-Jun-19 13:52N 64°51' E 011°03'3 7.6
2018-Jun-19 13:26N 64°48' E 011°02'3 3.8
2018-Jun-19 12:31N 64°51' E 011°05'315.2
2018-Jun-19 12:20N 64°48' E 011°02'1 0.2
2018-Jun-19 09:51N 64°48' E 011°01'0 0.4
2018-Jun-19 09:30N 64°48' E 011°02'0 0.2
2018-Jun-19 09:00N 64°48' E 011°01'0 0.1
2018-Jun-19 08:30N 64°48' E 011°01'0 0.3
2018-Jun-19 07:58N 64°48' E 011°02'4 6.8
2018-Jun-19 07:26N 64°51' E 011°05'1 2.3
2018-Jun-19 06:57N 64°51' E 011°03'3 5.2
2018-Jun-19 06:20N 64°48' E 011°02'720.1
2018-Jun-19 06:00N 64°52' E 011°15'918.3
2018-Jun-19 05:30N 64°58' E 011°31'7 0.5
2018-Jun-18 14:33N 65°04' E 011°40'115.1
2018-Jun-18 14:30N 65°04' E 011°39'1121.4
2018-Jun-18 14:01N 64°55' E 011°23'713.6
2018-Jun-18 13:30N 64°50' E 011°11'5 8.2
2018-Jun-18 12:55N 64°48' E 011°02'0 0.2
2018-Jun-18 12:26N 64°48' E 011°02'0 0.0
2018-Jun-18 12:00N 64°48' E 011°02'0 0.1
2018-Jun-18 11:24N 64°48' E 011°01'0 0.3
2018-Jun-18 11:00N 64°48' E 011°02'0 0.0
2018-Jun-18 10:30N 64°48' E 011°02'0 0.0
2018-Jun-18 09:59N 64°48' E 011°02'0 0.0
2018-Jun-18 09:30N 64°48' E 011°02'0 0.0
2018-Jun-18 09:00N 64°48' E 011°02'0 0.3
2018-Jun-18 08:30N 64°48' E 011°01'0 0.4
2018-Jun-18 08:00N 64°48' E 011°02'0 0.1
2018-Jun-18 06:51N 64°48' E 011°02'719.1
2018-Jun-18 06:31N 64°52' E 011°14'4 0.1
2018-Jun-16 11:30N 64°55' E 011°18'918.1
2018-Jun-16 11:00N 64°48' E 011°04'1 1.9
2018-Jun-16 10:29N 64°48' E 011°02'0 0.0
2018-Jun-16 09:56N 64°48' E 011°02'2 4.4
2018-Jun-16 09:30N 64°49' E 011°05'713.3
2018-Jun-16 09:00N 64°53' E 011°18'2 0.1
2018-Jun-15 10:57N 64°55' E 011°18'715.4
2018-Jun-15 10:30N 64°49' E 011°09'3 6.5
2018-Jun-15 10:00N 64°48' E 011°02'0 0.2
2018-Jun-15 09:30N 64°48' E 011°02'0 0.0
2018-Jun-15 08:57N 64°48' E 011°02'0 0.0
2018-Jun-15 08:29N 64°48' E 011°02'0 0.0
2018-Jun-15 06:25N 64°48' E 011°02'511.1
2018-Jun-15 06:01N 64°50' E 011°11'6 0.3
2018-Jun-14 13:13N 64°55' E 011°18'0 0.0
2018-Jun-14 13:00N 64°55' E 011°18'2 3.7
2018-Jun-14 12:30N 64°53' E 011°18'9 2.9
2018-Jun-14 09:34N 64°48' E 011°02'0 0.1
2018-Jun-14 09:27N 64°48' E 011°02'0 0.0
2018-Jun-14 08:51N 64°48' E 011°02'0 0.4
2018-Jun-14 08:30N 64°48' E 011°02'612.7
2018-Jun-14 08:00N 64°52' E 011°14'0 0.0
2018-Jun-14 07:30N 64°52' E 011°14'1 1.8
2018-Jun-14 07:01N 64°52' E 011°16'3 5.8
2018-Jun-14 06:31N 64°55' E 011°19'612.5
2018-Jun-14 06:01N 64°58' E 011°31'714.1
2018-Jun-14 05:30N 65°04' E 011°40'0 0.0
2018-Jun-14 05:00N 65°04' E 011°40'0 0.0
2018-Jun-14 04:30N 65°04' E 011°40'0 0.0
2018-Jun-14 04:00N 65°04' E 011°40'0 0.0
2018-Jun-14 03:30N 65°04' E 011°40'713.8
2018-Jun-14 03:00N 64°58' E 011°31'1019.1
2018-Jun-14 02:31N 64°52' E 011°15'713.2
2018-Jun-14 02:00N 64°48' E 011°02'0 0.0
2018-Jun-14 00:20N 64°48' E 011°02'0 0.0
2018-Jun-13 23:31N 64°48' E 011°02'0 8.6
2018-Jun-13 23:30N 64°48' E 011°02'0 0.2
2018-Jun-13 22:55N 64°48' E 011°02'0 0.0
2018-Jun-13 20:30N 64°48' E 011°02'0 0.0
2018-Jun-13 19:57N 64°48' E 011°02'0 0.0
2018-Jun-13 19:26N 64°48' E 011°02'0 0.0
2018-Jun-13 19:00N 64°48' E 011°02'0 0.0
2018-Jun-13 18:13N 64°48' E 011°02'0 0.0
2018-Jun-13 18:00N 64°48' E 011°02'0 0.0
2018-Jun-13 17:30N 64°48' E 011°02'0 0.0
2018-Jun-13 16:59N 64°48' E 011°02'0 0.1
2018-Jun-13 16:30N 64°48' E 011°02'0 0.0
2018-Jun-13 15:53N 64°48' E 011°02'0 0.1
2018-Jun-13 15:25N 64°48' E 011°02'0 0.0
2018-Jun-13 14:57N 64°48' E 011°02'0 0.1
2018-Jun-13 14:30N 64°48' E 011°02'0 0.0
2018-Jun-13 14:00N 64°48' E 011°02'0 0.1
2018-Jun-13 13:29N 64°48' E 011°02'0 0.0
2018-Jun-13 12:11N 64°48' E 011°02'0 0.0
2018-Jun-13 11:50N 64°48' E 011°02'0 0.0
2018-Jun-13 11:27N 64°48' E 011°02'0 0.0
2018-Jun-13 10:52N 64°48' E 011°02'0 0.0
2018-Jun-13 10:29N 64°48' E 011°02'0 0.0
2018-Jun-13 09:59N 64°48' E 011°02'0 0.0
2018-Jun-13 09:18N 64°48' E 011°02'0 0.0
2018-Jun-13 08:59N 64°48' E 011°02'0 0.0
2018-Jun-13 08:30N 64°48' E 011°02'0 0.0
2018-Jun-13 07:56N 64°48' E 011°02'0 0.0
2018-Jun-13 07:27N 64°48' E 011°02'0 0.0
2018-Jun-13 06:54N 64°48' E 011°02'0 0.1
2018-Jun-13 06:29N 64°48' E 011°02'0 0.1
2018-Jun-13 05:56N 64°48' E 011°02'0 0.0
2018-Jun-13 05:30N 64°48' E 011°02'0 0.2
2018-Jun-13 05:00N 64°48' E 011°02'0 0.2
2018-Jun-13 04:29N 64°48' E 011°02'0 0.0
2018-Jun-13 04:00N 64°48' E 011°02'0 0.1
2018-Jun-13 02:21N 64°48' E 011°01'0 0.2
2018-Jun-13 01:56N 64°48' E 011°02'0 0.1
2018-Jun-13 00:40N 64°48' E 011°01'0 0.0
2018-Jun-13 00:30N 64°48' E 011°01'0 0.0
2018-Jun-12 21:58N 64°48' E 011°01'0 0.2
2018-Jun-12 21:11N 64°48' E 011°01'0 0.3
2018-Jun-12 21:00N 64°48' E 011°02'0 0.1
2018-Jun-12 20:02N 64°48' E 011°01'0 0.4
2018-Jun-12 19:59N 64°48' E 011°01'0 0.0
2018-Jun-12 18:37N 64°48' E 011°01'0 0.2
2018-Jun-12 18:25N 64°48' E 011°01'3 5.8
2018-Jun-12 17:52N 64°51' E 011°03'3 7.9
2018-Jun-12 17:27N 64°48' E 011°01'4 8.7
2018-Jun-12 17:00N 64°50' E 011°10'917.9
2018-Jun-12 16:31N 64°56' E 011°25'1020.5
2018-Jun-12 16:00N 65°04' E 011°40'0 0.5
2018-Jun-12 15:30N 65°04' E 011°40'918.9
2018-Jun-12 15:01N 64°56' E 011°27'714.2
2018-Jun-12 14:30N 64°52' E 011°15'4 7.9
2018-Jun-12 14:00N 64°49' E 011°08'3 5.3
2018-Jun-12 13:28N 64°48' E 011°02'0 0.2
2018-Jun-12 12:39N 64°48' E 011°02'0 0.0
2018-Jun-12 12:26N 64°48' E 011°02'0 0.2
2018-Jun-12 12:00N 64°48' E 011°01'0 0.1
2018-Jun-12 08:54N 64°48' E 011°02'  
Track history (hours):
 
Tides and Currents Weather Stations Pressure Air Temp Water Temp Dewpoint Dewpoint Depression Visibility Wind Speed Wind Dir Waves Ship Positions

Holmen

Last reported at 2018-Jun-22 08:27 UTC. Time now 2018-Jun-22 11:15 UTC.
Position N 64°48' E 011°02'.

Length 9 m; draft 0.8 m.

MMSI: 257774900.

Date/timePositionNaut miles runAvg speedWind from/ knotsBaromVisibWave heightAir tempDewpointWater temp
2018-Jun-22 08:27N 64°48' E 011°02'0 0.0
2018-Jun-22 07:06N 64°48' E 011°02'217.0
2018-Jun-22 06:59N 64°49' E 011°06'510.7
2018-Jun-22 06:30N 64°52' E 011°15'815.6
2018-Jun-22 06:00N 64°57' E 011°29'5 0.3
2018-Jun-21 13:25N 65°01' E 011°35'820.9
2018-Jun-21 13:01N 64°55' E 011°21'713.1
2018-Jun-21 12:31N 64°50' E 011°11'4 1.4
2018-Jun-21 09:15N 64°48' E 011°02'0 0.3
2018-Jun-21 08:48N 64°48' E 011°02'0 0.1
2018-Jun-21 08:08N 64°48' E 011°01'2 1.5
2018-Jun-21 06:48N 64°49' E 011°06'518.5
2018-Jun-21 06:31N 64°52' E 011°16'3 6.4
2018-Jun-21 06:01N 64°55' E 011°19'816.9
2018-Jun-21 05:30N 65°00' E 011°35'4 8.8
2018-Jun-21 05:00N 65°04' E 011°40'0 0.0
2018-Jun-20 13:07N 65°04' E 011°40'214.2
2018-Jun-20 12:59N 65°03' E 011°37'1019.8
2018-Jun-20 12:30N 64°55' E 011°23'2 3.8
2018-Jun-20 12:01N 64°55' E 011°19'0 0.0
2018-Jun-20 11:31N 64°55' E 011°19'0 0.0
2018-Jun-20 11:01N 64°55' E 011°19'0 0.0
2018-Jun-20 10:31N 64°55' E 011°19'0 0.0
2018-Jun-20 10:00N 64°55' E 011°19'2 3.4
2018-Jun-20 09:30N 64°53' E 011°18'5 9.5
2018-Jun-20 09:00N 64°50' E 011°10'3 6.1
2018-Jun-20 08:30N 64°52' E 011°15'3 6.5
2018-Jun-20 08:00N 64°55' E 011°19'0 0.0
2018-Jun-20 07:30N 64°55' E 011°19'0 0.0
2018-Jun-20 07:00N 64°55' E 011°19'5 9.2
2018-Jun-20 06:30N 64°57' E 011°28'612.4
2018-Jun-20 06:01N 65°02' E 011°37'3 0.3
2018-Jun-19 19:25N 65°04' E 011°40'819.2
2018-Jun-19 19:01N 64°58' E 011°30'917.1
2018-Jun-19 18:30N 64°52' E 011°15'7 2.3
2018-Jun-19 15:32N 64°48' E 011°01'3 1.9
2018-Jun-19 13:52N 64°51' E 011°03'3 7.6
2018-Jun-19 13:26N 64°48' E 011°02'3 3.8
2018-Jun-19 12:31N 64°51' E 011°05'315.2
2018-Jun-19 12:20N 64°48' E 011°02'1 0.2
2018-Jun-19 09:51N 64°48' E 011°01'0 0.4
2018-Jun-19 09:30N 64°48' E 011°02'0 0.2
2018-Jun-19 09:00N 64°48' E 011°01'0 0.1
2018-Jun-19 08:30N 64°48' E 011°01'0 0.3
2018-Jun-19 07:58N 64°48' E 011°02'4 6.8
2018-Jun-19 07:26N 64°51' E 011°05'1 2.3
2018-Jun-19 06:57N 64°51' E 011°03'3 5.2
2018-Jun-19 06:20N 64°48' E 011°02'720.1
2018-Jun-19 06:00N 64°52' E 011°15'918.3
2018-Jun-19 05:30N 64°58' E 011°31'7 0.5
2018-Jun-18 14:33N 65°04' E 011°40'115.1
2018-Jun-18 14:30N 65°04' E 011°39'1121.4
2018-Jun-18 14:01N 64°55' E 011°23'713.6
2018-Jun-18 13:30N 64°50' E 011°11'5 8.2
2018-Jun-18 12:55N 64°48' E 011°02'0 0.2
2018-Jun-18 12:26N 64°48' E 011°02'0 0.0
2018-Jun-18 12:00N 64°48' E 011°02'0 0.1
2018-Jun-18 11:24N 64°48' E 011°01'0 0.3
2018-Jun-18 11:00N 64°48' E 011°02'0 0.0
2018-Jun-18 10:30N 64°48' E 011°02'0 0.0
2018-Jun-18 09:59N 64°48' E 011°02'0 0.0
2018-Jun-18 09:30N 64°48' E 011°02'0 0.0
2018-Jun-18 09:00N 64°48' E 011°02'0 0.3
2018-Jun-18 08:30N 64°48' E 011°01'0 0.4
2018-Jun-18 08:00N 64°48' E 011°02'0 0.1
2018-Jun-18 06:51N 64°48' E 011°02'719.1
2018-Jun-18 06:31N 64°52' E 011°14'4 0.1
2018-Jun-16 11:30N 64°55' E 011°18'918.1
2018-Jun-16 11:00N 64°48' E 011°04'1 1.9
2018-Jun-16 10:29N 64°48' E 011°02'0 0.0
2018-Jun-16 09:56N 64°48' E 011°02'2 4.4
2018-Jun-16 09:30N 64°49' E 011°05'713.3
2018-Jun-16 09:00N 64°53' E 011°18'2 0.1
2018-Jun-15 10:57N 64°55' E 011°18'715.4
2018-Jun-15 10:30N 64°49' E 011°09'3 6.5
2018-Jun-15 10:00N 64°48' E 011°02'0 0.2
2018-Jun-15 09:30N 64°48' E 011°02'0 0.0
2018-Jun-15 08:57N 64°48' E 011°02'0 0.0
2018-Jun-15 08:29N 64°48' E 011°02'0 0.0
2018-Jun-15 06:25N 64°48' E 011°02'511.1
2018-Jun-15 06:01N 64°50' E 011°11'6 0.3
2018-Jun-14 13:13N 64°55' E 011°18'0 0.0
2018-Jun-14 13:00N 64°55' E 011°18'2 3.7
2018-Jun-14 12:30N 64°53' E 011°18'9 2.9
2018-Jun-14 09:34N 64°48' E 011°02'0 0.1
2018-Jun-14 09:27N 64°48' E 011°02'0 0.0
2018-Jun-14 08:51N 64°48' E 011°02'0 0.4
2018-Jun-14 08:30N 64°48' E 011°02'612.7
2018-Jun-14 08:00N 64°52' E 011°14'0 0.0
2018-Jun-14 07:30N 64°52' E 011°14'1 1.8
2018-Jun-14 07:01N 64°52' E 011°16'3 5.8
2018-Jun-14 06:31N 64°55' E 011°19'612.5
2018-Jun-14 06:01N 64°58' E 011°31'714.1
2018-Jun-14 05:30N 65°04' E 011°40'0 0.0
2018-Jun-14 05:00N 65°04' E 011°40'0 0.0
2018-Jun-14 04:30N 65°04' E 011°40'0 0.0
2018-Jun-14 04:00N 65°04' E 011°40'0 0.0
2018-Jun-14 03:30N 65°04' E 011°40'713.8
2018-Jun-14 03:00N 64°58' E 011°31'1019.1
2018-Jun-14 02:31N 64°52' E 011°15'713.2
2018-Jun-14 02:00N 64°48' E 011°02'0 0.0
2018-Jun-14 00:20N 64°48' E 011°02'0 0.0
2018-Jun-13 23:31N 64°48' E 011°02'0 8.6
2018-Jun-13 23:30N 64°48' E 011°02'0 0.2
2018-Jun-13 22:55N 64°48' E 011°02'0 0.0
2018-Jun-13 20:30N 64°48' E 011°02'0 0.0
2018-Jun-13 19:57N 64°48' E 011°02'0 0.0
2018-Jun-13 19:26N 64°48' E 011°02'0 0.0
2018-Jun-13 19:00N 64°48' E 011°02'0 0.0
2018-Jun-13 18:13N 64°48' E 011°02'0 0.0
2018-Jun-13 18:00N 64°48' E 011°02'0 0.0
2018-Jun-13 17:30N 64°48' E 011°02'0 0.0
2018-Jun-13 16:59N 64°48' E 011°02'0 0.1
2018-Jun-13 16:30N 64°48' E 011°02'0 0.0
2018-Jun-13 15:53N 64°48' E 011°02'0 0.1
2018-Jun-13 15:25N 64°48' E 011°02'0 0.0
2018-Jun-13 14:57N 64°48' E 011°02'0 0.1
2018-Jun-13 14:30N 64°48' E 011°02'0 0.0
2018-Jun-13 14:00N 64°48' E 011°02'0 0.1
2018-Jun-13 13:29N 64°48' E 011°02'0 0.0
2018-Jun-13 12:11N 64°48' E 011°02'0 0.0
2018-Jun-13 11:50N 64°48' E 011°02'0 0.0
2018-Jun-13 11:27N 64°48' E 011°02'0 0.0
2018-Jun-13 10:52N 64°48' E 011°02'0 0.0
2018-Jun-13 10:29N 64°48' E 011°02'0 0.0
2018-Jun-13 09:59N 64°48' E 011°02'0 0.0
2018-Jun-13 09:18N 64°48' E 011°02'0 0.0
2018-Jun-13 08:59N 64°48' E 011°02'0 0.0
2018-Jun-13 08:30N 64°48' E 011°02'0 0.0
2018-Jun-13 07:56N 64°48' E 011°02'0 0.0
2018-Jun-13 07:27N 64°48' E 011°02'0 0.0
2018-Jun-13 06:54N 64°48' E 011°02'0 0.1
2018-Jun-13 06:29N 64°48' E 011°02'0 0.1
2018-Jun-13 05:56N 64°48' E 011°02'0 0.0
2018-Jun-13 05:30N 64°48' E 011°02'0 0.2
2018-Jun-13 05:00N 64°48' E 011°02'0 0.2
2018-Jun-13 04:29N 64°48' E 011°02'0 0.0
2018-Jun-13 04:00N 64°48' E 011°02'0 0.1
2018-Jun-13 02:21N 64°48' E 011°01'0 0.2
2018-Jun-13 01:56N 64°48' E 011°02'0 0.1
2018-Jun-13 00:40N 64°48' E 011°01'0 0.0
2018-Jun-13 00:30N 64°48' E 011°01'0 0.0
2018-Jun-12 21:58N 64°48' E 011°01'0 0.2
2018-Jun-12 21:11N 64°48' E 011°01'0 0.3
2018-Jun-12 21:00N 64°48' E 011°02'0 0.1
2018-Jun-12 20:02N 64°48' E 011°01'0 0.4
2018-Jun-12 19:59N 64°48' E 011°01'0 0.0
2018-Jun-12 18:37N 64°48' E 011°01'0 0.2
2018-Jun-12 18:25N 64°48' E 011°01'3 5.8
2018-Jun-12 17:52N 64°51' E 011°03'3 7.9
2018-Jun-12 17:27N 64°48' E 011°01'4 8.7
2018-Jun-12 17:00N 64°50' E 011°10'917.9
2018-Jun-12 16:31N 64°56' E 011°25'1020.5
2018-Jun-12 16:00N 65°04' E 011°40'0 0.5
2018-Jun-12 15:30N 65°04' E 011°40'918.9
2018-Jun-12 15:01N 64°56' E 011°27'714.2
2018-Jun-12 14:30N 64°52' E 011°15'4 7.9
2018-Jun-12 14:00N 64°49' E 011°08'3 5.3
2018-Jun-12 13:28N 64°48' E 011°02'0 0.2
2018-Jun-12 12:39N 64°48' E 011°02'0 0.0
2018-Jun-12 12:26N 64°48' E 011°02'0 0.2
2018-Jun-12 12:00N 64°48' E 011°01'0 0.1
2018-Jun-12 08:54N 64°48' E 011°02'  

Dump ship's entire track history